Gentilly, Minnesota
Current Conditions -  °F | °C
As of 4:54 AM on Friday 19 Dec 2014 (Local Time) from KCKN Reporting Station
Broken Clouds Broken Clouds  
Wind Chill:   Ceiling: 1200
Heat Index: 21°   Visibility: 7mi
Dew Point: 19°   Wind: 13mph
Humidity: 93%   Direction: 170°S
Pressure: 30.11"   Gusts: NA
Location:  47.8137°N, 96.5605°W
Report Text: KCKN 191054Z AUTO 17011KT 7SM BKN012 M06/M07 A3011 RMK AO2
Loading
Personal Weather Stations






























Interactive Weather Map New forecast layout! Learn more

10-Day Weather Forecast

Advertisements
Track Severe Weather on mobile